createdAt,value
2022-09-05T00:00:31.630Z,19.50
2022-09-05T00:03:15.693Z,19.50
2022-09-05T00:06:12.418Z,19.50
2022-09-05T00:08:48.608Z,19.50
2022-09-05T00:11:40.387Z,19.40
2022-09-05T00:14:51.607Z,19.40
2022-09-05T00:19:14.752Z,19.40
2022-09-05T00:24:19.194Z,19.30
2022-09-05T00:24:37.161Z,19.30
2022-09-05T00:27:04.094Z,19.20
2022-09-05T00:31:05.440Z,19.10
2022-09-05T00:32:46.012Z,19.20
2022-09-05T00:35:12.928Z,19.10
2022-09-05T00:37:49.290Z,19.00
2022-09-05T00:40:34.283Z,19.00
2022-09-05T00:43:22.020Z,19.00
2022-09-05T00:45:59.860Z,19.00
2022-09-05T00:48:42.651Z,18.90
2022-09-05T00:51:29.256Z,19.00
2022-09-05T00:54:41.047Z,18.90
2022-09-05T00:57:30.732Z,18.90
2022-09-05T01:00:22.904Z,18.80
2022-09-05T01:03:27.312Z,18.80
2022-09-05T01:06:31.706Z,18.70
2022-09-05T01:09:14.965Z,18.70
2022-09-05T01:12:03.603Z,18.70
2022-09-05T01:14:58.607Z,18.70
2022-09-05T01:17:37.825Z,18.70
2022-09-05T01:20:29.860Z,18.70
2022-09-05T01:23:01.617Z,18.60
2022-09-05T01:25:44.043Z,18.60
2022-09-05T01:29:14.147Z,18.60
2022-09-05T01:31:05.796Z,18.60
2022-09-05T01:33:55.851Z,18.60
2022-09-05T01:36:52.180Z,18.60
2022-09-05T01:40:11.293Z,18.60
2022-09-05T01:43:01.641Z,18.60
2022-09-05T01:45:47.457Z,18.60
2022-09-05T01:48:17.539Z,18.60
2022-09-05T01:50:48.691Z,18.50
2022-09-05T01:53:32.169Z,18.60
2022-09-05T01:56:36.381Z,18.50
2022-09-05T01:59:18.786Z,18.50
2022-09-05T02:02:13.538Z,18.30
2022-09-05T02:05:16.098Z,18.20
2022-09-05T02:08:19.928Z,18.00
2022-09-05T02:10:46.874Z,17.90
2022-09-05T02:13:13.880Z,17.90
2022-09-05T02:16:00.326Z,17.90
2022-09-05T02:18:54.920Z,17.90
2022-09-05T02:21:31.756Z,17.90
2022-09-05T02:24:18.246Z,17.90
2022-09-05T02:27:04.174Z,17.90
2022-09-05T02:29:46.691Z,17.90
2022-09-05T02:32:18.856Z,17.90
2022-09-05T02:34:57.270Z,17.90
2022-09-05T02:37:55.936Z,17.90
2022-09-05T02:45:06.638Z,17.90
2022-09-05T02:45:24.229Z,17.90
2022-09-05T02:46:36.956Z,18.00
2022-09-05T02:50:48.764Z,18.10
2022-09-05T02:57:28.063Z,18.10
2022-09-05T02:57:37.040Z,18.00
2022-09-05T02:58:14.629Z,18.00
2022-09-05T03:00:51.028Z,18.00
2022-09-05T03:03:35.663Z,17.90
2022-09-05T03:06:09.969Z,18.00
2022-09-05T03:08:50.123Z,18.00
2022-09-05T03:11:58.790Z,18.00
2022-09-05T03:15:23.645Z,17.90
2022-09-05T03:18:20.167Z,17.90
2022-09-05T03:21:09.675Z,17.90
2022-09-05T03:24:04.452Z,17.90
2022-09-05T03:26:43.584Z,17.90
2022-09-05T03:29:37.696Z,17.80
2022-09-05T03:32:23.143Z,17.90
2022-09-05T03:35:34.159Z,17.90
2022-09-05T03:38:30.087Z,17.90
2022-09-05T03:41:40.007Z,17.90
2022-09-05T03:44:32.581Z,18.00
2022-09-05T03:47:27.032Z,18.00
2022-09-05T03:54:36.157Z,18.00
2022-09-05T03:57:12.924Z,18.00
2022-09-05T03:57:20.407Z,18.10
2022-09-05T03:59:15.374Z,18.00
2022-09-05T04:03:30.783Z,18.00
2022-09-05T04:08:18.634Z,18.10
2022-09-05T04:08:28.343Z,18.10
2022-09-05T04:10:36.167Z,18.00
2022-09-05T04:13:31.605Z,18.00
2022-09-05T04:16:11.126Z,18.00
2022-09-05T04:18:44.286Z,18.00
2022-09-05T04:21:32.673Z,17.90
2022-09-05T04:24:02.249Z,18.00
2022-09-05T04:26:47.605Z,17.90
2022-09-05T04:29:35.748Z,18.00
2022-09-05T04:32:33.633Z,18.00
2022-09-05T04:35:55.520Z,17.90
2022-09-05T04:38:38.586Z,17.90
2022-09-05T04:41:15.918Z,17.90
2022-09-05T04:43:55.294Z,17.80
2022-09-05T04:46:25.290Z,17.80
2022-09-05T04:49:06.623Z,17.80
2022-09-05T04:52:00.755Z,17.90
2022-09-05T04:54:36.127Z,17.80
2022-09-05T04:57:21.434Z,17.80
2022-09-05T05:03:27.508Z,17.80
2022-09-05T05:06:02.739Z,17.70
2022-09-05T05:06:22.189Z,17.70
2022-09-05T05:08:44.535Z,17.70
2022-09-05T05:16:06.321Z,17.70
2022-09-05T05:18:12.787Z,17.70
2022-09-05T05:18:14.834Z,17.70
2022-09-05T05:20:43.792Z,17.70
2022-09-05T05:23:16.766Z,17.70
2022-09-05T05:25:57.247Z,17.70
2022-09-05T05:28:39.016Z,17.80
2022-09-05T05:31:30.698Z,17.80
2022-09-05T05:34:24.374Z,17.80
2022-09-05T05:37:29.403Z,17.90
2022-09-05T05:40:11.327Z,18.00
2022-09-05T05:42:40.803Z,18.00
2022-09-05T05:45:28.302Z,18.10
2022-09-05T05:48:04.248Z,18.20
2022-09-05T05:50:57.574Z,18.30
2022-09-05T05:54:01.856Z,18.40
2022-09-05T05:56:46.948Z,18.60
2022-09-05T05:59:57.539Z,18.70
2022-09-05T06:02:32.312Z,18.90
2022-09-05T06:05:24.569Z,18.90
2022-09-05T06:11:06.029Z,19.10
2022-09-05T06:14:51.958Z,19.20
2022-09-05T06:14:57.126Z,19.30
2022-09-05T06:17:12.913Z,19.40
2022-09-05T06:21:18.166Z,19.60
2022-09-05T06:22:48.115Z,19.70
2022-09-05T06:25:45.226Z,19.90
2022-09-05T06:28:30.770Z,20.00
2022-09-05T06:31:31.771Z,20.10
2022-09-05T06:34:07.792Z,20.30
2022-09-05T06:37:21.393Z,20.40
2022-09-05T06:40:00.714Z,20.50
2022-09-05T06:42:43.487Z,20.60
2022-09-05T06:45:58.846Z,20.70
2022-09-05T06:48:45.606Z,20.90
2022-09-05T06:51:44.775Z,20.90
2022-09-05T06:55:16.148Z,21.00
2022-09-05T06:58:27.948Z,21.10
2022-09-05T07:01:01.624Z,21.20
2022-09-05T07:04:00.352Z,21.30
2022-09-05T07:07:06.607Z,21.40
2022-09-05T07:09:52.223Z,21.60
2022-09-05T07:12:40.881Z,21.70
2022-09-05T07:15:14.133Z,21.90
2022-09-05T07:18:10.139Z,22.00
2022-09-05T07:21:17.766Z,22.20
2022-09-05T07:24:34.632Z,22.30
2022-09-05T07:27:41.985Z,22.50
2022-09-05T07:30:23.055Z,22.80
2022-09-05T07:32:54.098Z,22.90
2022-09-05T07:35:31.246Z,23.00
2022-09-05T07:38:19.816Z,23.10
2022-09-05T07:40:58.337Z,23.20
2022-09-05T07:43:40.117Z,23.30
2022-09-05T07:46:13.171Z,23.30
2022-09-05T07:49:12.379Z,23.40
2022-09-05T07:56:54.261Z,23.50
2022-09-05T07:57:04.916Z,23.60
2022-09-05T07:57:51.984Z,23.70
2022-09-05T08:00:26.670Z,23.90
2022-09-05T08:02:59.511Z,23.90
2022-09-05T08:05:35.214Z,24.10
2022-09-05T08:08:08.677Z,24.10
2022-09-05T08:11:24.842Z,24.20
2022-09-05T08:13:42.815Z,24.40
2022-09-05T08:16:17.718Z,24.50
2022-09-05T08:19:15.044Z,24.60
2022-09-05T08:21:50.297Z,24.70
2022-09-05T08:24:27.119Z,24.80
2022-09-05T08:27:22.913Z,24.90
2022-09-05T08:30:24.501Z,25.10
2022-09-05T08:33:10.985Z,25.20
2022-09-05T08:35:43.448Z,25.40
2022-09-05T08:38:13.660Z,25.50
2022-09-05T08:41:04.740Z,25.60
2022-09-05T08:46:42.293Z,25.70
2022-09-05T08:47:12.180Z,25.70
2022-09-05T08:50:14.312Z,25.80
2022-09-05T08:52:50.470Z,26.00
2022-09-05T08:55:17.445Z,26.10
2022-09-05T08:58:16.407Z,26.10
2022-09-05T09:01:00.161Z,26.30
2022-09-05T09:03:52.366Z,26.50
2022-09-05T09:06:28.888Z,26.60
2022-09-05T09:09:15.655Z,26.80
2022-09-05T09:11:51.476Z,27.00
2022-09-05T09:14:30.932Z,27.10
2022-09-05T09:17:19.810Z,27.30
2022-09-05T09:20:17.642Z,27.40
2022-09-05T09:22:54.575Z,27.50
2022-09-05T09:25:30.720Z,27.60
2022-09-05T09:28:49.965Z,27.70
2022-09-05T09:31:33.444Z,27.80
2022-09-05T09:34:08.845Z,27.90
2022-09-05T09:36:45.021Z,28.10
2022-09-05T09:39:39.323Z,28.30
2022-09-05T09:42:34.162Z,28.40
2022-09-05T09:45:27.652Z,28.50
2022-09-05T09:48:10.915Z,28.60
2022-09-05T09:51:07.438Z,28.70
2022-09-05T09:54:12.383Z,28.80
2022-09-05T09:57:15.919Z,28.90
2022-09-05T09:59:54.633Z,29.00
2022-09-05T10:06:30.305Z,29.10
2022-09-05T10:10:49.589Z,29.30
2022-09-05T10:10:54.222Z,29.20
2022-09-05T10:12:06.265Z,29.40
2022-09-05T10:15:30.760Z,29.60
2022-09-05T10:18:25.480Z,29.70
2022-09-05T10:21:17.862Z,29.90
2022-09-05T10:23:53.692Z,29.90
2022-09-05T10:26:51.714Z,30.00
2022-09-05T10:29:37.470Z,30.10
2022-09-05T10:35:05.078Z,30.20
2022-09-05T10:35:22.543Z,30.30
2022-09-05T10:38:25.373Z,30.40
2022-09-05T10:41:20.282Z,30.50
2022-09-05T10:44:04.706Z,30.60
2022-09-05T10:47:09.974Z,30.70
2022-09-05T10:49:44.676Z,30.80
2022-09-05T10:52:19.048Z,30.80
2022-09-05T10:55:14.634Z,31.00
2022-09-05T10:57:54.821Z,31.00
2022-09-05T11:02:24.542Z,31.10
2022-09-05T11:03:55.881Z,31.20
2022-09-05T11:06:57.128Z,31.30
2022-09-05T11:09:46.829Z,31.40
2022-09-05T11:12:37.205Z,31.50
2022-09-05T11:15:32.107Z,31.50
2022-09-05T11:18:55.162Z,31.60
2022-09-05T12:03:58.969Z,31.20
2022-09-05T12:07:07.339Z,32.60
2022-09-05T12:10:46.446Z,32.70
2022-09-05T12:16:40.541Z,33.10
2022-09-05T12:19:27.046Z,33.10
2022-09-05T12:22:33.298Z,33.30
2022-09-05T12:27:42.630Z,33.50
2022-09-05T12:29:27.321Z,33.60
2022-09-05T12:32:31.100Z,33.70
2022-09-05T12:36:05.167Z,33.90
2022-09-05T12:40:36.862Z,33.90
2022-09-05T12:41:42.574Z,34.00
2022-09-05T12:42:10.209Z,32.90
2022-09-05T12:44:29.838Z,34.10
2022-09-05T12:46:23.874Z,34.00
2022-09-05T12:49:06.820Z,34.00
2022-09-05T12:51:45.065Z,34.10
2022-09-05T12:54:34.740Z,34.10
2022-09-05T13:01:17.458Z,34.20
2022-09-05T13:03:11.270Z,34.10
2022-09-05T13:03:27.941Z,34.10
2022-09-05T13:06:24.671Z,34.20
2022-09-05T13:09:00.228Z,34.20
2022-09-05T13:15:02.697Z,34.30
2022-09-05T13:15:08.130Z,34.30
2022-09-05T13:18:04.018Z,34.50
2022-09-05T13:20:35.602Z,34.70
2022-09-05T13:23:32.299Z,34.90
2022-09-05T13:26:08.184Z,35.00
2022-09-05T13:28:51.336Z,35.00
2022-09-05T13:37:54.159Z,35.10
2022-09-05T13:38:01.203Z,35.30
2022-09-05T13:38:19.071Z,35.20
2022-09-05T13:40:24.855Z,35.40
2022-09-05T13:43:11.299Z,35.40
2022-09-05T13:46:11.642Z,35.50
2022-09-05T13:49:29.284Z,35.40
2022-09-05T13:52:26.396Z,35.40
2022-09-05T13:55:00.585Z,35.20
2022-09-05T13:57:43.658Z,35.10
2022-09-05T14:00:15.249Z,35.20
2022-09-05T14:03:39.307Z,35.30
2022-09-05T14:06:46.644Z,35.50
2022-09-05T14:09:42.360Z,35.60
2022-09-05T14:12:29.628Z,35.40
2022-09-05T14:15:10.011Z,35.40
2022-09-05T14:18:17.774Z,35.50
2022-09-05T14:21:16.840Z,35.60
2022-09-05T14:24:27.608Z,35.40
2022-09-05T14:27:11.612Z,35.40
2022-09-05T14:29:55.377Z,35.40
2022-09-05T14:37:43.763Z,35.40
2022-09-05T14:37:55.110Z,35.40
2022-09-05T14:38:28.701Z,35.40
2022-09-05T14:41:33.370Z,35.30
2022-09-05T14:44:19.186Z,35.40
2022-09-05T14:47:02.624Z,35.60
2022-09-05T14:49:55.501Z,35.50
2022-09-05T14:52:29.132Z,35.70
2022-09-05T15:02:53.944Z,35.80
2022-09-05T15:02:58.504Z,35.70
2022-09-05T15:06:33.097Z,35.80
2022-09-05T15:11:42.658Z,35.80
2022-09-05T15:12:23.643Z,35.90
2022-09-05T15:14:38.588Z,36.00
2022-09-05T15:17:06.455Z,36.10
2022-09-05T15:20:08.390Z,36.20
2022-09-05T15:22:39.867Z,36.20
2022-09-05T15:25:19.305Z,36.20
2022-09-05T15:27:47.505Z,36.40
2022-09-05T15:30:35.690Z,36.40
2022-09-05T15:33:25.459Z,36.30
2022-09-05T15:35:53.236Z,36.40
2022-09-05T15:38:29.110Z,36.30
2022-09-05T15:41:11.076Z,36.70
2022-09-05T15:43:51.714Z,36.90
2022-09-05T15:46:42.875Z,37.10
2022-09-05T15:49:23.772Z,37.20
2022-09-05T15:51:57.407Z,37.10
2022-09-05T15:54:37.902Z,36.90
2022-09-05T15:57:17.669Z,36.80
2022-09-05T15:59:49.405Z,36.90
2022-09-05T16:02:24.616Z,36.70
2022-09-05T16:10:34.677Z,36.40
2022-09-05T16:10:48.418Z,36.00
2022-09-05T16:11:59.544Z,35.50
2022-09-05T16:14:39.572Z,34.90
2022-09-05T16:23:13.282Z,34.60
2022-09-05T16:23:28.090Z,34.50
2022-09-05T16:23:53.514Z,34.40
2022-09-05T16:26:28.010Z,34.20
2022-09-05T16:29:25.248Z,33.90
2022-09-05T16:31:55.947Z,33.40
2022-09-05T16:35:01.315Z,33.20
2022-09-05T16:37:49.258Z,33.00
2022-09-05T16:40:25.160Z,32.80
2022-09-05T16:43:03.782Z,32.50
2022-09-05T16:45:55.969Z,32.40
2022-09-05T16:48:55.083Z,32.10
2022-09-05T16:51:36.298Z,31.60
2022-09-05T16:54:15.058Z,30.90
2022-09-05T16:56:56.238Z,30.60
2022-09-05T16:59:28.410Z,30.60
2022-09-05T17:02:23.003Z,30.40
2022-09-05T17:05:07.942Z,30.30
2022-09-05T17:08:05.950Z,30.10
2022-09-05T17:10:44.144Z,29.90
2022-09-05T17:13:36.814Z,29.80
2022-09-05T17:16:05.659Z,29.60
2022-09-05T17:18:35.442Z,29.20
2022-09-05T17:21:09.981Z,29.10
2022-09-05T17:29:24.162Z,29.10
2022-09-05T17:29:30.887Z,29.10
2022-09-05T17:31:27.731Z,29.10
2022-09-05T17:32:52.524Z,29.10
2022-09-05T17:35:47.250Z,28.90
2022-09-05T17:38:28.019Z,28.70
2022-09-05T17:41:27.362Z,28.40
2022-09-05T17:44:06.097Z,28.20
2022-09-05T17:46:41.795Z,28.10
2022-09-05T17:49:19.616Z,28.00
2022-09-05T17:52:16.688Z,28.00
2022-09-05T17:54:49.581Z,28.00
2022-09-05T17:57:29.370Z,27.70
2022-09-05T18:00:00.345Z,27.60
2022-09-05T18:02:34.000Z,27.50
2022-09-05T18:05:02.278Z,27.40
2022-09-05T18:07:29.529Z,27.20
2022-09-05T18:13:31.104Z,26.40
2022-09-05T18:15:39.428Z,26.00
2022-09-05T18:24:12.043Z,25.60
2022-09-05T18:26:46.922Z,25.40
2022-09-05T18:29:57.108Z,25.20
2022-09-05T18:32:33.706Z,25.00
2022-09-05T18:35:38.396Z,24.80
2022-09-05T18:38:16.104Z,24.60
2022-09-05T18:41:06.547Z,24.40
2022-09-05T18:44:14.056Z,24.40
2022-09-05T18:46:52.738Z,24.30
2022-09-05T18:50:23.786Z,24.20
2022-09-05T18:52:23.985Z,24.20
2022-09-05T18:56:09.254Z,24.10
2022-09-05T18:57:52.099Z,24.20
2022-09-05T19:00:40.068Z,24.10
2022-09-05T19:03:27.681Z,24.00
2022-09-05T19:06:34.541Z,24.00
2022-09-05T19:08:56.289Z,24.00
2022-09-05T19:11:53.943Z,24.00
2022-09-05T19:14:58.856Z,24.00
2022-09-05T19:17:37.277Z,23.90
2022-09-05T19:20:34.023Z,23.90
2022-09-05T19:23:22.432Z,24.00
2022-09-05T19:26:05.184Z,24.00
2022-09-05T19:35:58.703Z,24.20
2022-09-05T19:36:51.021Z,24.40
2022-09-05T19:37:09.793Z,24.50
2022-09-05T19:37:26.229Z,24.40
2022-09-05T19:42:49.515Z,24.40
2022-09-05T19:47:34.811Z,24.30
2022-09-05T19:47:42.807Z,24.40
2022-09-05T19:48:25.964Z,24.30
2022-09-05T19:50:57.694Z,24.20
2022-09-05T19:53:25.219Z,24.00
2022-09-05T19:55:53.980Z,23.70
2022-09-05T19:58:23.414Z,23.50
2022-09-05T20:01:04.954Z,23.30
2022-09-05T20:03:38.785Z,23.30
2022-09-05T20:06:35.267Z,23.10
2022-09-05T20:09:25.867Z,23.00
2022-09-05T20:11:58.333Z,23.00
2022-09-05T20:14:31.195Z,22.90
2022-09-05T20:17:21.192Z,22.80
2022-09-05T20:19:48.705Z,22.70
2022-09-05T20:22:48.729Z,22.70
2022-09-05T20:25:34.777Z,22.70
2022-09-05T20:28:09.989Z,22.70
2022-09-05T20:30:41.686Z,22.50
2022-09-05T20:33:14.667Z,22.50
2022-09-05T20:41:36.705Z,22.50
2022-09-05T20:43:18.014Z,22.40
2022-09-05T20:43:18.457Z,22.40
2022-09-05T20:44:41.589Z,22.50
2022-09-05T20:49:44.858Z,22.50
2022-09-05T20:54:21.352Z,22.40
2022-09-05T20:54:27.601Z,22.40
2022-09-05T20:56:05.732Z,22.40
2022-09-05T20:58:35.070Z,22.20
2022-09-05T21:01:21.031Z,22.10
2022-09-05T21:04:00.743Z,22.10
2022-09-05T21:06:41.724Z,22.00
2022-09-05T21:09:14.896Z,21.90
2022-09-05T21:11:45.412Z,21.90
2022-09-05T21:14:22.300Z,22.00
2022-09-05T21:17:13.352Z,22.00
2022-09-05T21:19:43.696Z,21.90
2022-09-05T21:22:23.905Z,21.90
2022-09-05T21:25:15.934Z,22.00
2022-09-05T21:28:05.774Z,22.20
2022-09-05T21:30:39.935Z,22.30
2022-09-05T21:33:18.166Z,22.20
2022-09-05T21:35:49.141Z,22.10
2022-09-05T21:38:32.264Z,21.90
2022-09-05T21:41:01.835Z,21.80
2022-09-05T21:47:38.962Z,21.60
2022-09-05T21:47:46.515Z,21.60
2022-09-05T21:49:04.213Z,21.60
2022-09-05T21:51:31.740Z,21.70
2022-09-05T21:58:13.039Z,21.70
2022-09-05T21:59:27.093Z,21.70
2022-09-05T21:59:55.678Z,21.70
2022-09-05T22:02:25.977Z,21.60
2022-09-05T22:05:02.137Z,21.60
2022-09-05T22:07:32.396Z,21.60
2022-09-05T22:10:04.653Z,21.60
2022-09-05T22:12:36.214Z,21.40
2022-09-05T22:15:26.333Z,21.00
2022-09-05T22:18:14.737Z,20.60
2022-09-05T22:20:44.370Z,20.20
2022-09-05T22:23:11.971Z,20.00
2022-09-05T22:25:39.732Z,19.80
2022-09-05T22:28:13.684Z,19.70
2022-09-05T22:30:40.734Z,19.70
2022-09-05T22:33:08.091Z,19.60
2022-09-05T22:35:37.420Z,19.60
2022-09-05T22:38:10.585Z,19.60
2022-09-05T22:40:40.174Z,19.60
2022-09-05T22:43:09.127Z,19.70
2022-09-05T22:45:38.006Z,19.80
2022-09-05T22:48:10.447Z,20.20
2022-09-05T22:50:38.087Z,20.30
2022-09-05T22:53:07.184Z,20.70
2022-09-05T22:55:39.540Z,20.70
2022-09-05T22:58:08.541Z,20.70
2022-09-05T23:00:36.378Z,20.90
2022-09-05T23:03:05.615Z,20.90
2022-09-05T23:05:33.540Z,21.00
2022-09-05T23:08:01.463Z,20.90
2022-09-05T23:10:30.012Z,20.90
2022-09-05T23:12:57.039Z,20.90
2022-09-05T23:15:24.803Z,20.80
2022-09-05T23:17:56.063Z,20.80
2022-09-05T23:20:24.767Z,20.80
2022-09-05T23:22:51.970Z,20.70
2022-09-05T23:25:19.431Z,20.70
2022-09-05T23:27:46.554Z,20.80
2022-09-05T23:30:14.070Z,20.90
2022-09-05T23:32:45.948Z,21.00
2022-09-05T23:35:13.620Z,21.00
2022-09-05T23:37:45.052Z,21.00
2022-09-05T23:40:13.802Z,20.90
2022-09-05T23:42:41.677Z,21.00
2022-09-05T23:45:09.883Z,21.00
2022-09-05T23:47:37.511Z,21.00
2022-09-05T23:50:05.374Z,20.90
2022-09-05T23:52:40.278Z,20.90
2022-09-05T23:55:07.665Z,20.90
2022-09-05T23:57:34.751Z,20.90
